Time;durP1;ratioP1;P1;durP2;ratioP2;P2;SDS_P1;SDS_P2;PMS_P1;PMS_P2;Temp;Humidity;BMP_temperature;BMP_pressure;BME280_temperature;BME280_humidity;BME280_pressure;Samples;Min_cycle;Max_cycle;Signal;HPM_P1;HPM_P2
2023/03/23 00:02:14;;;;;;;;;;;11.80;99.90;;;;;;5016976;28;19959;-73
2023/03/23 00:04:42;;;;;;;;;;;11.80;99.90;;;;;;5034724;28;19909;-73
2023/03/23 00:07:08;;;;;;;;;;;11.80;99.90;;;;;;5016783;28;19905;-72
2023/03/23 00:09:34;;;;;;;;;;;11.90;99.90;;;;;;5035038;28;19912;-73
2023/03/23 00:12:04;;;;;;;;;;;11.80;99.90;;;;;;5035142;28;20302;-72
2023/03/23 00:14:40;;;;;;;;;;;11.80;99.90;;;;;;5016855;28;19905;-72
2023/03/23 00:17:09;;;;;;;;;;;11.80;99.90;;;;;;5034294;28;19916;-72
2023/03/23 00:19:44;;;;;;;;;;;11.80;99.90;;;;;;5034456;28;19905;-73
2023/03/23 00:22:10;;;;;;;;;;;11.80;99.90;;;;;;5016683;28;19905;-72
2023/03/23 00:24:36;;;;;;;;;;;11.80;99.90;;;;;;5034308;28;19928;-73
2023/03/23 00:27:03;;;;;;;;;;;11.80;99.90;;;;;;5016365;28;19905;-73
2023/03/23 00:29:28;;;;;;;;;;;11.80;99.90;;;;;;5016183;28;20406;-73
2023/03/23 00:31:56;;;;;;;;;;;11.80;99.90;;;;;;5016633;28;19905;-73
2023/03/23 00:34:24;;;;;;;;;;;11.90;99.90;;;;;;5034215;28;19905;-73
2023/03/23 00:36:53;;;;;;;;;;;11.90;99.90;;;;;;5016312;28;20330;-73
2023/03/23 00:39:19;;;;;;;;;;;11.90;99.90;;;;;;5034027;28;19971;-73
2023/03/23 00:41:44;;;;;;;;;;;12.00;99.90;;;;;;5034000;28;20056;-73
2023/03/23 00:44:23;;;;;;;;;;;11.90;99.90;;;;;;5034571;28;19991;-73
2023/03/23 00:46:51;;;;;;;;;;;11.90;99.90;;;;;;5016220;28;19928;-73
2023/03/23 00:49:19;;;;;;;;;;;12.70;99.90;;;;;;5016247;28;19939;-73
2023/03/23 00:51:44;;;;;;;;;;;11.90;99.90;;;;;;5016164;28;19905;-73
2023/03/23 00:54:10;;;;;;;;;;;11.90;99.90;;;;;;5033904;28;19995;-73
2023/03/23 00:56:36;;;;;;;;;;;12.00;99.90;;;;;;5033660;28;19955;-73
2023/03/23 00:59:02;;;;;;;;;;;12.00;99.90;;;;;;5016155;28;19905;-73
2023/03/23 01:01:28;;;;;;;;;;;12.00;99.90;;;;;;5033825;28;19988;-73
2023/03/23 01:04:00;;;;;;;;;;;12.00;99.90;;;;;;5015956;28;20004;-73
2023/03/23 01:06:26;;;;;;;;;;;12.00;99.90;;;;;;5015969;28;19909;-73
2023/03/23 01:08:53;;;;;;;;;;;12.00;99.90;;;;;;5015859;28;19905;-73
2023/03/23 01:11:19;;;;;;;;;;;12.00;99.90;;;;;;5033632;28;19909;-72
2023/03/23 01:13:45;;;;;;;;;;;12.00;99.90;;;;;;5033549;28;19912;-73
2023/03/23 01:16:10;;;;;;;;;;;12.00;99.90;;;;;;5033458;28;19905;-72
2023/03/23 01:18:36;;;;;;;;;;;12.00;99.90;;;;;;5015773;28;19909;-73
2023/03/23 01:21:10;;;;;;;;;;;12.00;99.90;;;;;;5015837;28;20420;-73
2023/03/23 01:23:36;;;;;;;;;;;11.90;99.90;;;;;;5015877;28;19905;-73
2023/03/23 01:26:02;;;;;;;;;;;11.90;99.90;;;;;;5033460;28;19909;-72
2023/03/23 01:28:28;;;;;;;;;;;11.90;99.90;;;;;;5033326;28;19959;-73
2023/03/23 01:30:58;;;;;;;;;;;11.90;99.90;;;;;;5033387;28;19905;-73
2023/03/23 01:33:24;;;;;;;;;;;12.00;99.90;;;;;;5033954;28;19954;-72
2023/03/23 01:35:49;;;;;;;;;;;12.00;99.90;;;;;;5015704;28;20373;-73
2023/03/23 01:38:15;;;;;;;;;;;12.10;99.90;;;;;;5033263;28;19909;-73
2023/03/23 01:40:40;;;;;;;;;;;12.10;99.90;;;;;;5015612;28;19911;-73
2023/03/23 01:43:11;;;;;;;;;;;12.10;99.90;;;;;;5036266;28;19905;-73
2023/03/23 01:45:37;;;;;;;;;;;12.10;99.90;;;;;;5019563;28;19931;-72
2023/03/23 01:48:16;;;;;;;;;;;12.10;99.90;;;;;;5037247;28;20295;-72
2023/03/23 01:51:01;;;;;;;;;;;12.00;99.90;;;;;;5037167;28;19974;-73
2023/03/23 01:53:34;;;;;;;;;;;12.00;99.90;;;;;;5018832;28;19928;-73
2023/03/23 01:56:01;;;;;;;;;;;11.90;99.90;;;;;;5036980;28;19915;-73
2023/03/23 01:58:28;;;;;;;;;;;11.90;99.90;;;;;;5019272;28;19987;-73
2023/03/23 02:00:55;;;;;;;;;;;12.00;99.90;;;;;;5036990;28;19912;-73
2023/03/23 02:03:23;;;;;;;;;;;11.90;99.90;;;;;;5019189;28;19951;-73
2023/03/23 02:05:49;;;;;;;;;;;11.90;99.90;;;;;;5019213;28;19909;-73
2023/03/23 02:08:14;;;;;;;;;;;11.90;99.90;;;;;;5019159;28;20013;-73
2023/03/23 02:10:40;;;;;;;;;;;12.00;99.90;;;;;;5036913;28;19905;-72
2023/03/23 02:13:07;;;;;;;;;;;12.00;99.90;;;;;;5019165;28;19907;-73
2023/03/23 02:15:39;;;;;;;;;;;12.00;99.90;;;;;;5036690;28;19913;-72
2023/03/23 02:18:22;;;;;;;;;;;12.10;99.90;;;;;;5036688;28;20344;-73
2023/03/23 02:20:50;;;;;;;;;;;12.00;99.90;;;;;;5037229;28;19905;-73
2023/03/23 02:23:43;;;;;;;;;;;12.00;99.90;;;;;;5036620;28;20433;-73
2023/03/23 02:26:20;;;;;;;;;;;12.00;99.90;;;;;;5036510;28;19905;-73
2023/03/23 02:29:03;;;;;;;;;;;12.00;99.90;;;;;;5036493;28;19913;-72
2023/03/23 02:31:45;;;;;;;;;;;12.00;99.90;;;;;;5036617;28;19996;-73
2023/03/23 02:34:17;;;;;;;;;;;12.00;99.90;;;;;;5036374;28;19967;-73
2023/03/23 02:36:50;;;;;;;;;;;12.10;99.90;;;;;;5018534;28;19987;-72
2023/03/23 02:39:29;;;;;;;;;;;12.10;99.90;;;;;;5018605;28;19959;-73
2023/03/23 02:42:00;;;;;;;;;;;12.10;99.90;;;;;;5036310;28;20287;-73
2023/03/23 02:44:29;;;;;;;;;;;12.20;99.90;;;;;;5036202;28;19912;-72
2023/03/23 02:46:56;;;;;;;;;;;12.20;99.90;;;;;;5036034;28;19905;-73
2023/03/23 02:49:22;;;;;;;;;;;12.20;99.90;;;;;;5036111;28;19912;-72
2023/03/23 02:51:48;;;;;;;;;;;12.30;99.90;;;;;;5018325;28;19909;-72
2023/03/23 02:54:15;;;;;;;;;;;12.30;99.90;;;;;;5017967;28;20291;-72
2023/03/23 02:56:40;;;;;;;;;;;12.20;99.90;;;;;;5018116;28;19913;-72
2023/03/23 02:59:06;;;;;;;;;;;12.30;99.90;;;;;;5019086;28;19913;-72
2023/03/23 03:01:37;;;;;;;;;;;12.30;99.90;;;;;;5018110;28;19905;-72
2023/03/23 03:04:12;;;;;;;;;;;12.30;99.90;;;;;;5036047;28;20268;-73
2023/03/23 03:06:57;;;;;;;;;;;12.30;99.90;;;;;;5036619;28;19959;-73
2023/03/23 03:09:31;;;;;;;;;;;12.30;99.90;;;;;;5035754;28;19905;-73
2023/03/23 03:11:59;;;;;;;;;;;12.30;99.90;;;;;;5018069;28;19905;-73
2023/03/23 03:14:31;;;;;;;;;;;12.30;99.90;;;;;;5017887;28;19912;-72
2023/03/23 03:17:08;;;;;;;;;;;12.40;99.90;;;;;;5035437;28;19916;-73
2023/03/23 03:19:43;;;;;;;;;;;12.40;99.90;;;;;;5017752;28;19905;-73
2023/03/23 03:22:09;;;;;;;;;;;12.40;99.90;;;;;;5017737;28;19951;-72
2023/03/23 03:24:37;;;;;;;;;;;12.30;99.90;;;;;;5035402;28;20101;-72
2023/03/23 03:27:04;;;;;;;;;;;12.30;99.90;;;;;;5035303;28;19905;-73
2023/03/23 03:29:32;;;;;;;;;;;12.30;99.90;;;;;;5017650;28;19915;-73
2023/03/23 03:31:58;;;;;;;;;;;12.40;99.90;;;;;;5035316;28;19905;-73
2023/03/23 03:34:24;;;;;;;;;;;12.40;99.90;;;;;;5017552;28;19956;-73
2023/03/23 03:36:51;;;;;;;;;;;12.40;99.90;;;;;;5035056;28;19905;-73
2023/03/23 03:39:17;;;;;;;;;;;12.40;99.90;;;;;;5017808;28;19905;-73
2023/03/23 03:41:43;;;;;;;;;;;12.40;99.90;;;;;;5017402;28;19905;-73
2023/03/23 03:44:08;;;;;;;;;;;12.40;99.90;;;;;;5017221;28;19920;-73
2023/03/23 03:46:34;;;;;;;;;;;12.40;99.90;;;;;;5034929;28;20390;-73
2023/03/23 03:49:01;;;;;;;;;;;12.40;99.90;;;;;;5034968;28;19912;-73
2023/03/23 03:51:27;;;;;;;;;;;12.40;99.90;;;;;;5034944;28;19909;-73
2023/03/23 03:53:53;;;;;;;;;;;12.40;99.90;;;;;;5017177;28;19912;-73
2023/03/23 03:56:19;;;;;;;;;;;12.40;99.90;;;;;;5035315;28;20245;-73
2023/03/23 03:58:48;;;;;;;;;;;12.40;99.90;;;;;;5016980;28;20399;-72
2023/03/23 04:01:14;;;;;;;;;;;12.40;99.90;;;;;;5034762;28;19912;-73
2023/03/23 04:03:40;;;;;;;;;;;12.40;99.90;;;;;;5016934;28;19916;-73
2023/03/23 04:06:07;;;;;;;;;;;12.40;99.90;;;;;;5033945;28;19940;-73
2023/03/23 04:08:34;;;;;;;;;;;12.50;99.90;;;;;;5016902;28;19905;-73
2023/03/23 04:10:59;;;;;;;;;;;12.50;99.90;;;;;;5034571;28;19909;-73
2023/03/23 04:13:25;;;;;;;;;;;12.50;99.90;;;;;;5016849;28;20422;-72
2023/03/23 04:15:51;;;;;;;;;;;12.50;99.90;;;;;;5034479;28;19959;-73
2023/03/23 04:18:17;;;;;;;;;;;12.50;99.90;;;;;;5034359;28;19909;-72
2023/03/23 04:20:44;;;;;;;;;;;12.50;99.90;;;;;;5034442;28;20383;-73
2023/03/23 04:23:10;;;;;;;;;;;12.60;99.90;;;;;;5034404;28;20046;-72
2023/03/23 04:25:35;;;;;;;;;;;12.50;99.90;;;;;;5034245;28;19948;-72
2023/03/23 04:28:01;;;;;;;;;;;12.40;99.90;;;;;;5016370;28;19912;-72
2023/03/23 04:30:27;;;;;;;;;;;12.50;99.90;;;;;;5016440;28;19944;-72
2023/03/23 04:32:54;;;;;;;;;;;12.40;99.90;;;;;;5016568;28;20364;-73
2023/03/23 04:35:21;;;;;;;;;;;12.40;99.90;;;;;;5034169;28;20376;-72
2023/03/23 04:37:49;;;;;;;;;;;12.50;99.90;;;;;;5016225;28;19909;-72
2023/03/23 04:40:16;;;;;;;;;;;12.50;99.90;;;;;;5016348;28;19912;-73
2023/03/23 04:42:45;;;;;;;;;;;12.40;99.90;;;;;;5016294;28;19905;-73
2023/03/23 04:45:10;;;;;;;;;;;12.40;99.90;;;;;;5016274;28;19905;-73
2023/03/23 04:47:40;;;;;;;;;;;12.40;99.90;;;;;;5016184;28;20004;-73
2023/03/23 04:50:08;;;;;;;;;;;12.40;99.90;;;;;;5016239;28;19940;-72
2023/03/23 04:52:33;;;;;;;;;;;12.40;99.90;;;;;;5016074;28;19954;-72
2023/03/23 04:54:58;;;;;;;;;;;12.40;99.90;;;;;;5033816;28;20015;-72
2023/03/23 04:57:27;;;;;;;;;;;12.40;99.90;;;;;;5015989;28;19909;-73
2023/03/23 04:59:52;;;;;;;;;;;12.40;99.90;;;;;;5016063;28;19987;-74
2023/03/23 05:02:18;;;;;;;;;;;12.30;99.90;;;;;;5034038;28;20319;-74
2023/03/23 05:04:44;;;;;;;;;;;12.30;99.90;;;;;;5015982;28;19905;-74
2023/03/23 05:07:10;;;;;;;;;;;12.20;99.90;;;;;;5015903;28;19931;-74
2023/03/23 05:09:36;;;;;;;;;;;12.20;99.90;;;;;;5033661;28;20364;-74
2023/03/23 05:12:08;;;;;;;;;;;12.10;99.90;;;;;;5015968;28;19967;-73
2023/03/23 05:14:34;;;;;;;;;;;12.10;99.90;;;;;;5015927;28;19914;-73
2023/03/23 05:17:00;;;;;;;;;;;12.00;99.90;;;;;;5015664;28;20296;-74
2023/03/23 05:19:25;;;;;;;;;;;11.90;99.90;;;;;;5033599;28;20368;-74
2023/03/23 05:21:50;;;;;;;;;;;11.70;99.90;;;;;;5033520;28;19945;-73
2023/03/23 05:24:17;;;;;;;;;;;11.90;99.90;;;;;;5016166;28;19905;-73
2023/03/23 05:26:44;;;;;;;;;;;11.50;99.90;;;;;;5015702;28;20305;-74
2023/03/23 05:29:10;;;;;;;;;;;11.30;99.90;;;;;;5033390;28;19928;-73
2023/03/23 05:31:37;;;;;;;;;;;11.20;99.90;;;;;;5016224;28;19955;-77
2023/03/23 05:34:03;;;;;;;;;;;11.10;99.90;;;;;;5015918;28;20008;-78
2023/03/23 05:36:30;;;;;;;;;;;11.00;99.90;;;;;;5034089;28;20383;-78
2023/03/23 05:38:56;;;;;;;;;;;11.00;99.90;;;;;;5033489;28;20304;-77
2023/03/23 05:41:22;;;;;;;;;;;12.50;99.90;;;;;;5016019;28;19905;-78
2023/03/23 05:43:48;;;;;;;;;;;11.00;99.90;;;;;;5033590;28;19951;-77
2023/03/23 05:46:14;;;;;;;;;;;11.10;99.90;;;;;;5015728;28;19908;-78
2023/03/23 05:48:40;;;;;;;;;;;10.90;99.90;;;;;;5015753;28;20368;-77
2023/03/23 05:51:05;;;;;;;;;;;10.90;99.90;;;;;;5015603;28;19955;-77
2023/03/23 05:53:31;;;;;;;;;;;12.00;99.90;;;;;;5033450;28;19905;-77
2023/03/23 05:56:00;;;;;;;;;;;11.90;99.90;;;;;;5033263;28;19940;-77
2023/03/23 05:58:25;;;;;;;;;;;10.90;99.90;;;;;;5015561;28;19909;-78
2023/03/23 06:00:51;;;;;;;;;;;10.90;99.90;;;;;;5033851;28;20422;-78
2023/03/23 06:03:17;;;;;;;;;;;10.90;99.90;;;;;;5033341;28;19905;-77
2023/03/23 06:05:44;;;;;;;;;;;10.80;99.90;;;;;;5033237;28;19905;-78
2023/03/23 06:08:09;;;;;;;;;;;10.90;99.90;;;;;;5015618;28;19931;-78
2023/03/23 06:10:36;;;;;;;;;;;10.80;99.90;;;;;;5015922;28;19904;-78
2023/03/23 06:13:02;;;;;;;;;;;12.90;99.90;;;;;;5016018;28;19959;-78
2023/03/23 06:15:31;;;;;;;;;;;10.90;99.90;;;;;;5015509;28;19905;-79
2023/03/23 06:17:59;;;;;;;;;;;10.90;99.90;;;;;;5033307;28;19955;-78
2023/03/23 06:20:25;;;;;;;;;;;10.80;99.90;;;;;;5033344;28;19920;-78
2023/03/23 06:22:51;;;;;;;;;;;10.80;99.90;;;;;;5033255;28;19905;-78
2023/03/23 06:25:17;;;;;;;;;;;11.00;99.90;;;;;;5033447;28;19931;-78
2023/03/23 06:27:43;;;;;;;;;;;10.70;99.90;;;;;;5015983;28;19913;-78
2023/03/23 06:30:09;;;;;;;;;;;10.70;99.90;;;;;;5019256;28;19905;-78
2023/03/23 06:32:35;;;;;;;;;;;10.70;99.90;;;;;;5019121;28;19905;-75
2023/03/23 06:35:01;;;;;;;;;;;10.70;99.90;;;;;;5037141;28;20324;-78
2023/03/23 06:37:27;;;;;;;;;;;10.70;99.90;;;;;;5018899;28;19958;-79
2023/03/23 06:39:52;;;;;;;;;;;11.10;99.90;;;;;;5019169;28;19909;-79
2023/03/23 06:42:18;;;;;;;;;;;11.00;99.90;;;;;;5019170;28;19913;-79
2023/03/23 06:44:43;;;;;;;;;;;10.70;99.90;;;;;;5019196;28;19927;-79
2023/03/23 06:47:09;;;;;;;;;;;10.70;99.90;;;;;;5019011;28;19913;-79
2023/03/23 06:49:34;;;;;;;;;;;10.80;99.90;;;;;;5036832;28;19905;-79
2023/03/23 06:52:01;;;;;;;;;;;10.80;99.90;;;;;;5019694;28;19954;-78
2023/03/23 06:54:27;;;;;;;;;;;10.90;99.90;;;;;;5037195;28;19913;-79
2023/03/23 06:56:52;;;;;;;;;;;10.90;99.90;;;;;;5038527;28;19944;-77
2023/03/23 06:59:19;;;;;;;;;;;10.90;99.90;;;;;;5019465;28;19909;-77
2023/03/23 07:01:46;;;;;;;;;;;10.90;99.90;;;;;;5037214;28;19904;-77
2023/03/23 07:04:11;;;;;;;;;;;10.90;99.90;;;;;;5036330;28;20321;-78
2023/03/23 07:06:37;;;;;;;;;;;11.00;99.90;;;;;;5018662;28;19963;-76
2023/03/23 07:09:03;;;;;;;;;;;11.00;99.90;;;;;;5036406;28;19905;-77
2023/03/23 07:11:29;;;;;;;;;;;11.00;99.90;;;;;;5019164;28;19905;-78
2023/03/23 07:13:54;;;;;;;;;;;11.10;99.90;;;;;;5036501;28;19913;-78
2023/03/23 07:16:21;;;;;;;;;;;11.10;99.90;;;;;;5018955;28;19921;-76
2023/03/23 07:18:46;;;;;;;;;;;11.20;99.90;;;;;;5035663;28;20352;-75
2023/03/23 07:21:12;;;;;;;;;;;11.00;99.90;;;;;;5036280;28;19905;-75
2023/03/23 07:23:37;;;;;;;;;;;11.10;99.90;;;;;;5035601;28;19959;-75
2023/03/23 07:26:03;;;;;;;;;;;11.10;99.90;;;;;;5017869;28;19905;-76
2023/03/23 07:28:29;;;;;;;;;;;11.20;99.90;;;;;;5017565;28;19913;-75
2023/03/23 07:30:54;;;;;;;;;;;11.30;99.90;;;;;;5035440;28;19974;-75
2023/03/23 07:33:21;;;;;;;;;;;11.30;99.90;;;;;;5017785;28;20023;-75
2023/03/23 07:35:47;;;;;;;;;;;11.30;99.90;;;;;;5017612;28;19920;-77
2023/03/23 07:38:13;;;;;;;;;;;11.30;99.90;;;;;;5035353;28;20011;-76
2023/03/23 07:40:40;;;;;;;;;;;11.30;99.90;;;;;;5034532;28;19905;-77
2023/03/23 07:43:06;;;;;;;;;;;11.30;99.90;;;;;;5035966;28;19906;-77
2023/03/23 07:45:31;;;;;;;;;;;11.30;99.90;;;;;;5035698;28;19912;-76
2023/03/23 07:47:57;;;;;;;;;;;11.30;99.90;;;;;;5017409;28;19912;-76
2023/03/23 07:50:24;;;;;;;;;;;11.30;99.90;;;;;;5035018;28;20303;-76
2023/03/23 07:52:58;;;;;;;;;;;11.40;99.90;;;;;;5035214;28;19963;-76
2023/03/23 07:55:24;;;;;;;;;;;11.50;99.90;;;;;;5017377;28;19956;-77
2023/03/23 07:57:51;;;;;;;;;;;11.50;99.90;;;;;;5017470;28;20379;-77
2023/03/23 08:00:23;;;;;;;;;;;11.50;99.90;;;;;;5017437;28;20331;-76
2023/03/23 08:02:49;;;;;;;;;;;11.60;99.90;;;;;;5035026;28;19904;-77
2023/03/23 08:05:15;;;;;;;;;;;11.60;99.90;;;;;;5017230;28;19992;-76
2023/03/23 08:07:41;;;;;;;;;;;11.50;99.90;;;;;;5017004;28;20253;-76
2023/03/23 08:10:11;;;;;;;;;;;11.70;99.90;;;;;;5017174;28;19909;-77
2023/03/23 08:12:38;;;;;;;;;;;11.70;99.90;;;;;;5035127;28;19932;-76
2023/03/23 08:15:04;;;;;;;;;;;11.60;99.90;;;;;;5017576;28;19988;-76
2023/03/23 08:17:29;;;;;;;;;;;11.60;99.90;;;;;;5034705;28;19913;-77
2023/03/23 08:19:55;;;;;;;;;;;12.30;99.90;;;;;;5016951;28;19999;-77
2023/03/23 08:22:20;;;;;;;;;;;11.70;99.90;;;;;;5016945;28;19905;-76
2023/03/23 08:24:46;;;;;;;;;;;11.80;99.90;;;;;;5017111;28;20353;-77
2023/03/23 08:27:11;;;;;;;;;;;11.90;99.90;;;;;;5034561;28;19908;-76
2023/03/23 08:29:37;;;;;;;;;;;12.20;99.90;;;;;;5016784;28;20277;-77
2023/03/23 08:32:03;;;;;;;;;;;12.00;99.90;;;;;;5034205;28;19905;-76
2023/03/23 08:34:29;;;;;;;;;;;12.10;99.90;;;;;;5016546;28;19912;-76
2023/03/23 08:36:54;;;;;;;;;;;12.10;99.90;;;;;;5016469;28;20287;-77
2023/03/23 08:39:22;;;;;;;;;;;12.00;99.90;;;;;;5016789;28;19916;-76
2023/03/23 08:41:48;;;;;;;;;;;11.90;99.90;;;;;;5016516;28;19913;-76
2023/03/23 08:44:14;;;;;;;;;;;12.00;99.90;;;;;;5034592;28;19905;-76
2023/03/23 08:46:39;;;;;;;;;;;11.90;99.90;;;;;;5034262;28;20050;-76
2023/03/23 08:49:05;;;;;;;;;;;12.00;99.90;;;;;;5034083;28;20292;-76
2023/03/23 08:51:31;;;;;;;;;;;12.10;99.90;;;;;;5033815;28;19958;-77
2023/03/23 08:53:57;;;;;;;;;;;12.10;99.90;;;;;;5034564;28;20384;-76
2023/03/23 08:56:22;;;;;;;;;;;12.20;99.90;;;;;;5033847;28;19905;-76
2023/03/23 08:58:48;;;;;;;;;;;12.20;99.90;;;;;;5033939;28;20391;-76
2023/03/23 09:01:14;;;;;;;;;;;12.20;99.90;;;;;;5034151;28;19905;-77
2023/03/23 09:03:40;;;;;;;;;;;12.30;99.90;;;;;;5016264;28;19916;-77
2023/03/23 09:06:07;;;;;;;;;;;12.50;99.90;;;;;;5016202;28;20319;-76
2023/03/23 09:08:35;;;;;;;;;;;12.50;99.90;;;;;;5034048;28;19905;-76
2023/03/23 09:11:02;;;;;;;;;;;12.50;99.90;;;;;;5033867;28;19905;-76
2023/03/23 09:13:28;;;;;;;;;;;12.60;99.90;;;;;;5034063;28;19913;-76
2023/03/23 09:15:53;;;;;;;;;;;12.50;99.90;;;;;;5034020;28;20024;-77
2023/03/23 09:18:19;;;;;;;;;;;12.40;99.90;;;;;;5033984;28;20335;-76
2023/03/23 09:20:45;;;;;;;;;;;12.50;99.90;;;;;;5034128;28;19905;-76
2023/03/23 09:23:10;;;;;;;;;;;12.60;99.90;;;;;;5034007;28;19905;-76
2023/03/23 09:25:36;;;;;;;;;;;12.70;99.90;;;;;;5033676;28;19928;-76
2023/03/23 09:28:01;;;;;;;;;;;13.80;99.90;;;;;;5016371;28;19959;-76
2023/03/23 09:30:28;;;;;;;;;;;12.70;99.90;;;;;;5034555;28;19905;-76
2023/03/23 09:32:53;;;;;;;;;;;12.70;99.90;;;;;;5016466;28;20019;-77
2023/03/23 09:35:22;;;;;;;;;;;12.70;99.90;;;;;;5015889;28;19959;-76
2023/03/23 09:37:48;;;;;;;;;;;12.90;99.90;;;;;;5015871;28;19909;-76
2023/03/23 09:40:21;;;;;;;;;;;13.00;99.90;;;;;;5033442;28;20323;-76
2023/03/23 09:42:57;;;;;;;;;;;13.20;99.90;;;;;;5015992;28;19905;-76
2023/03/23 09:45:37;;;;;;;;;;;13.30;99.90;;;;;;5033678;28;19959;-76
2023/03/23 09:48:05;;;;;;;;;;;13.30;99.90;;;;;;5033446;28;19905;-76
2023/03/23 09:50:32;;;;;;;;;;;13.40;99.90;;;;;;5033359;28;19909;-76
2023/03/23 09:53:08;;;;;;;;;;;13.40;99.90;;;;;;5015845;28;19905;-76
2023/03/23 09:55:34;;;;;;;;;;;13.30;99.90;;;;;;5015354;28;19911;-76
2023/03/23 09:58:00;;;;;;;;;;;13.40;99.90;;;;;;5033341;28;19912;-76
2023/03/23 10:00:30;;;;;;;;;;;13.50;99.90;;;;;;5033926;28;19909;-76
2023/03/23 10:03:17;;;;;;;;;;;13.60;99.90;;;;;;5034773;28;19905;-76
2023/03/23 10:05:42;;;;;;;;;;;13.70;99.90;;;;;;5019311;28;19905;-76
2023/03/23 10:08:11;;;;;;;;;;;14.00;99.90;;;;;;5037283;28;19919;-76
2023/03/23 10:10:57;;;;;;;;;;;14.00;99.90;;;;;;5037082;28;19905;-76
2023/03/23 10:13:26;;;;;;;;;;;14.20;99.90;;;;;;5036667;28;19913;-76
2023/03/23 10:15:52;;;;;;;;;;;14.20;99.90;;;;;;5036888;28;19911;-76
2023/03/23 10:18:27;;;;;;;;;;;14.40;99.90;;;;;;5019138;28;20000;-76
2023/03/23 10:20:54;;;;;;;;;;;14.40;99.90;;;;;;5036901;28;19918;-76
2023/03/23 10:23:20;;;;;;;;;;;14.30;99.90;;;;;;5036848;28;20384;-76
2023/03/23 10:25:51;;;;;;;;;;;14.50;99.90;;;;;;5036776;28;19905;-76
2023/03/23 10:28:19;;;;;;;;;;;14.50;99.90;;;;;;5018755;28;19943;-76
2023/03/23 10:30:53;;;;;;;;;;;14.30;99.90;;;;;;5018917;28;19905;-76
2023/03/23 10:33:22;;;;;;;;;;;14.30;99.90;;;;;;5036578;28;19912;-76
2023/03/23 10:35:51;;;;;;;;;;;14.40;99.90;;;;;;5018803;28;20288;-76
2023/03/23 10:38:29;;;;;;;;;;;14.60;99.90;;;;;;5018708;28;20419;-76
2023/03/23 10:41:01;;;;;;;;;;;14.50;99.90;;;;;;5018737;28;19940;-76
2023/03/23 10:43:27;;;;;;;;;;;14.20;99.90;;;;;;5036655;28;20276;-76
2023/03/23 10:45:59;;;;;;;;;;;14.00;99.90;;;;;;5036427;28;19905;-76
2023/03/23 10:48:30;;;;;;;;;;;14.00;99.90;;;;;;5018720;28;19944;-76
2023/03/23 10:50:57;;;;;;;;;;;14.00;99.90;;;;;;5036429;28;19912;-76
2023/03/23 10:53:27;;;;;;;;;;;14.00;99.90;;;;;;5036287;28;19905;-76
2023/03/23 10:55:54;;;;;;;;;;;13.90;99.90;;;;;;5036211;28;19905;-76
2023/03/23 10:58:35;;;;;;;;;;;14.00;99.90;;;;;;5036144;28;19971;-76
2023/03/23 11:01:03;;;;;;;;;;;14.20;99.90;;;;;;5018381;28;19909;-77
2023/03/23 11:03:29;;;;;;;;;;;14.30;99.90;;;;;;5018359;28;20310;-77
2023/03/23 11:06:05;;;;;;;;;;;14.30;99.90;;;;;;5018275;28;20004;-76
2023/03/23 11:08:34;;;;;;;;;;;14.30;99.90;;;;;;5018304;28;19937;-76
2023/03/23 11:11:10;;;;;;;;;;;14.40;99.90;;;;;;5035782;28;19927;-76
2023/03/23 11:13:39;;;;;;;;;;;14.70;99.90;;;;;;5017549;28;20368;-77
2023/03/23 11:16:05;;;;;;;;;;;14.70;99.90;;;;;;5035635;28;19932;-76
2023/03/23 11:18:39;;;;;;;;;;;14.50;99.90;;;;;;5017872;28;19908;-76
2023/03/23 11:21:05;;;;;;;;;;;14.30;99.90;;;;;;5017886;28;19905;-76
2023/03/23 11:23:41;;;;;;;;;;;14.40;99.90;;;;;;5017982;28;19914;-76
2023/03/23 11:26:17;;;;;;;;;;;14.60;99.90;;;;;;5017790;28;19905;-76
2023/03/23 11:29:01;;;;;;;;;;;14.70;99.90;;;;;;5017685;28;19917;-76
2023/03/23 11:31:52;;;;;;;;;;;14.60;99.90;;;;;;5035451;28;19909;-76
2023/03/23 11:34:17;;;;;;;;;;;14.90;99.90;;;;;;5017956;28;20036;-77
2023/03/23 11:36:48;;;;;;;;;;;15.40;99.90;;;;;;5017592;28;19979;-76
2023/03/23 11:39:25;;;;;;;;;;;15.70;99.90;;;;;;5035281;28;19975;-75
2023/03/23 11:41:51;;;;;;;;;;;15.90;99.90;;;;;;5017480;28;20378;-75
2023/03/23 11:44:17;;;;;;;;;;;15.70;99.90;;;;;;5017790;28;20335;-75
2023/03/23 11:47:03;;;;;;;;;;;15.40;99.90;;;;;;5017509;28;19909;-76
2023/03/23 11:49:32;;;;;;;;;;;15.20;99.90;;;;;;5035314;28;19948;-76
2023/03/23 11:52:05;;;;;;;;;;;14.90;99.90;;;;;;5017495;28;20261;-76
2023/03/23 11:54:36;;;;;;;;;;;14.60;99.90;;;;;;5035364;28;19928;-76
2023/03/23 11:57:06;;;;;;;;;;;14.40;99.90;;;;;;5034989;28;19964;-75
2023/03/23 11:59:35;;;;;;;;;;;14.20;99.90;;;;;;5035018;28;20344;-76
2023/03/23 12:02:04;;;;;;;;;;;14.00;99.90;;;;;;5017329;28;19905;-76
2023/03/23 12:04:54;;;;;;;;;;;13.80;99.90;;;;;;5034879;28;19975;-76
2023/03/23 12:07:20;;;;;;;;;;;13.80;99.90;;;;;;5017208;28;19908;-75
2023/03/23 12:09:55;;;;;;;;;;;13.80;99.90;;;;;;5035618;28;19928;-76
2023/03/23 12:12:23;;;;;;;;;;;13.80;99.90;;;;;;5017210;28;19911;-76
2023/03/23 12:15:10;;;;;;;;;;;13.70;99.90;;;;;;5017040;28;19955;-76
2023/03/23 12:17:41;;;;;;;;;;;13.90;99.90;;;;;;5034835;28;20356;-76
2023/03/23 12:20:30;;;;;;;;;;;14.10;99.90;;;;;;5034825;28;19995;-76
2023/03/23 12:23:00;;;;;;;;;;;14.50;99.90;;;;;;5026299;28;20295;-76
2023/03/23 12:25:29;;;;;;;;;;;15.00;99.90;;;;;;5016169;28;19944;-77
2023/03/23 12:28:03;;;;;;;;;;;15.50;99.90;;;;;;5034507;28;19920;-75
2023/03/23 12:30:39;;;;;;;;;;;15.50;99.90;;;;;;5016640;28;19905;-75
2023/03/23 12:33:11;;;;;;;;;;;15.40;99.90;;;;;;5034929;28;19912;-76
2023/03/23 12:35:51;;;;;;;;;;;15.40;99.90;;;;;;5034259;28;19905;-76
2023/03/23 12:38:31;;;;;;;;;;;15.50;99.90;;;;;;5034907;28;19909;-76
2023/03/23 12:40:57;;;;;;;;;;;15.40;99.90;;;;;;5016415;28;19956;-75
2023/03/23 12:43:35;;;;;;;;;;;15.50;99.90;;;;;;5034157;28;19905;-76
2023/03/23 12:46:01;;;;;;;;;;;15.40;99.90;;;;;;5034122;28;20228;-76
2023/03/23 12:48:33;;;;;;;;;;;15.10;99.90;;;;;;5016384;28;19988;-76
2023/03/23 12:51:02;;;;;;;;;;;15.30;99.90;;;;;;5034116;28;19905;-75
2023/03/23 12:53:30;;;;;;;;;;;15.10;99.90;;;;;;5016426;28;19955;-76
2023/03/23 12:56:05;;;;;;;;;;;15.10;99.90;;;;;;5016064;28;19905;-76
2023/03/23 12:58:32;;;;;;;;;;;15.20;99.90;;;;;;5016185;28;19913;-76
2023/03/23 13:01:02;;;;;;;;;;;15.10;99.90;;;;;;5033986;28;19912;-75
2023/03/23 13:04:03;;;;;;;;;;;15.00;99.90;;;;;;5016123;28;19992;-76
2023/03/23 13:06:32;;;;;;;;;;;14.90;99.90;;;;;;4973150;28;19953;-76
2023/03/23 13:09:06;;;;;;;;;;;14.90;99.90;;;;;;5022499;28;19905;-76
2023/03/23 13:11:33;;;;;;;;;;;14.90;99.90;;;;;;5016178;28;19905;-76
2023/03/23 13:14:17;;;;;;;;;;;15.00;99.90;;;;;;5034280;28;19909;-77
2023/03/23 13:16:52;;;;;;;;;;;15.10;99.90;;;;;;5034124;28;19905;-77
2023/03/23 13:19:17;;;;;;;;;;;15.10;99.90;;;;;;5016038;28;19909;-77
2023/03/23 13:21:53;;;;;;;;;;;15.20;99.90;;;;;;5016326;28;19911;-77
2023/03/23 13:24:21;;;;;;;;;;;15.40;99.90;;;;;;5034769;28;19905;-77
2023/03/23 13:26:49;;;;;;;;;;;15.70;99.90;;;;;;5033822;28;20380;-77
2023/03/23 13:29:19;;;;;;;;;;;15.90;99.90;;;;;;5016173;28;19913;-77
2023/03/23 13:31:46;;;;;;;;;;;16.00;99.90;;;;;;5016047;28;20004;-78
2023/03/23 13:34:21;;;;;;;;;;;15.80;99.90;;;;;;5033967;28;19991;-77
2023/03/23 13:36:54;;;;;;;;;;;15.70;99.90;;;;;;5016812;28;19905;-77
2023/03/23 13:39:23;;;;;;;;;;;15.80;99.90;;;;;;5020423;28;19913;-77
2023/03/23 13:41:59;;;;;;;;;;;15.60;99.90;;;;;;5019923;28;20421;-77
2023/03/23 13:44:26;;;;;;;;;;;16.20;99.90;;;;;;5038364;28;19905;-77
2023/03/23 13:47:15;;;;;;;;;;;15.70;99.90;;;;;;5019798;28;19905;-77
2023/03/23 13:49:54;;;;;;;;;;;15.60;99.90;;;;;;5029190;28;19905;-77
2023/03/23 13:52:38;;;;;;;;;;;15.50;99.90;;;;;;5037536;28;20434;-77
2023/03/23 13:55:16;;;;;;;;;;;15.50;99.90;;;;;;5019802;28;20387;-77
2023/03/23 13:57:57;;;;;;;;;;;15.50;99.90;;;;;;5019731;28;19912;-77
2023/03/23 14:00:28;;;;;;;;;;;15.60;99.90;;;;;;5037965;28;19905;-77
2023/03/23 14:03:03;;;;;;;;;;;15.50;99.90;;;;;;5019363;28;20404;-77
2023/03/23 14:05:52;;;;;;;;;;;15.40;99.90;;;;;;5037223;28;19996;-77
2023/03/23 14:08:22;;;;;;;;;;;15.30;99.90;;;;;;5011353;28;19905;-77
2023/03/23 14:10:48;;;;;;;;;;;15.00;99.90;;;;;;5019910;28;19905;-78
2023/03/23 14:13:18;;;;;;;;;;;14.40;99.90;;;;;;5037150;28;19992;-77
2023/03/23 14:15:45;;;;;;;;;;;14.20;99.90;;;;;;5036863;28;19951;-77
2023/03/23 14:18:15;;;;;;;;;;;14.50;99.90;;;;;;5019294;28;19913;-77
2023/03/23 14:20:42;;;;;;;;;;;14.80;99.90;;;;;;5019256;28;19905;-77
2023/03/23 14:23:15;;;;;;;;;;;15.10;99.90;;;;;;5036920;28;19935;-77
2023/03/23 14:25:40;;;;;;;;;;;15.50;99.90;;;;;;5019539;28;20357;-77
2023/03/23 14:28:16;;;;;;;;;;;15.60;99.90;;;;;;5019121;28;19963;-77